createdAt,value
2022-12-18T00:04:42.453Z,5.90
2022-12-18T00:09:47.883Z,5.40
2022-12-18T00:14:55.860Z,5.03
2022-12-18T00:20:01.034Z,5.10
2022-12-18T00:25:06.802Z,5.53
2022-12-18T00:30:15.553Z,5.57
2022-12-18T00:35:20.974Z,5.50
2022-12-18T00:40:26.240Z,5.57
2022-12-18T00:45:35.379Z,5.45
2022-12-18T00:50:40.757Z,5.25
2022-12-18T00:55:47.212Z,5.50
2022-12-18T01:00:55.137Z,5.68
2022-12-18T01:06:00.638Z,5.90
2022-12-18T01:11:11.795Z,5.95
2022-12-18T01:16:20.806Z,5.88
2022-12-18T01:21:27.349Z,5.37
2022-12-18T01:26:33.239Z,5.07
2022-12-18T01:31:41.382Z,5.50
2022-12-18T01:36:46.654Z,4.72
2022-12-18T01:42:07.080Z,5.82
2022-12-18T01:47:19.513Z,4.93
2022-12-18T01:52:25.564Z,4.40
2022-12-18T01:57:32.478Z,5.13
2022-12-18T02:02:40.676Z,4.82
2022-12-18T02:07:53.886Z,5.07
2022-12-18T02:13:08.472Z,5.00
2022-12-18T02:18:22.890Z,5.13
2022-12-18T02:23:44.530Z,5.10
2022-12-18T02:28:57.038Z,4.38
2022-12-18T02:34:06.764Z,5.05
2022-12-18T02:39:17.768Z,5.50
2022-12-18T02:44:38.401Z,5.10
2022-12-18T02:49:52.474Z,4.50
2022-12-18T02:55:08.146Z,4.30
2022-12-18T03:00:21.909Z,4.25
2022-12-18T03:05:33.005Z,4.80
2022-12-18T03:10:46.357Z,5.00
2022-12-18T03:15:58.711Z,5.43
2022-12-18T03:21:09.083Z,5.15
2022-12-18T03:26:19.767Z,4.68
2022-12-18T03:31:31.548Z,4.50
2022-12-18T03:36:36.935Z,4.45
2022-12-18T03:41:48.635Z,4.97
2022-12-18T03:47:11.669Z,4.35
2022-12-18T03:52:24.159Z,4.80
2022-12-18T03:57:32.917Z,4.00
2022-12-18T04:02:43.919Z,4.40
2022-12-18T04:07:51.626Z,4.53
2022-12-18T04:12:59.900Z,5.00
2022-12-18T04:18:08.904Z,4.65
2022-12-18T04:23:20.319Z,4.63
2022-12-18T04:28:26.520Z,4.25
2022-12-18T04:33:34.518Z,4.37
2022-12-18T04:38:40.617Z,4.90
2022-12-18T04:43:50.430Z,5.15
2022-12-18T04:48:58.264Z,4.27
2022-12-18T04:54:03.583Z,5.38
2022-12-18T04:59:09.098Z,5.37
2022-12-18T05:04:17.027Z,5.45
2022-12-18T05:09:23.435Z,6.03
2022-12-18T05:14:28.675Z,5.30
2022-12-18T05:19:36.533Z,5.28
2022-12-18T05:24:41.801Z,4.97
2022-12-18T05:29:47.099Z,5.28
2022-12-18T05:34:55.004Z,5.35
2022-12-18T05:40:00.253Z,5.17
2022-12-18T05:45:05.725Z,5.68
2022-12-18T05:50:13.960Z,4.77
2022-12-18T05:55:19.467Z,4.88
2022-12-18T06:00:24.990Z,5.03
2022-12-18T06:05:32.964Z,5.43
2022-12-18T06:10:38.361Z,5.25
2022-12-18T06:15:43.662Z,4.70
2022-12-18T06:20:58.447Z,5.15
2022-12-18T06:26:07.974Z,4.78
2022-12-18T06:31:13.949Z,4.77
2022-12-18T06:36:22.039Z,5.40
2022-12-18T06:41:27.559Z,5.17
2022-12-18T06:46:33.271Z,4.10
2022-12-18T06:51:41.316Z,4.25
2022-12-18T06:56:48.957Z,5.23
2022-12-18T07:01:54.547Z,4.38
2022-12-18T07:07:02.574Z,4.90
2022-12-18T07:12:09.070Z,4.55
2022-12-18T07:17:14.372Z,4.50
2022-12-18T07:22:22.281Z,4.97
2022-12-18T07:27:27.874Z,5.03
2022-12-18T07:32:34.294Z,4.80
2022-12-18T07:37:42.102Z,5.18
2022-12-18T07:42:47.395Z,5.90
2022-12-18T07:47:52.725Z,5.30
2022-12-18T07:53:04.478Z,4.45
2022-12-18T07:58:09.739Z,4.87
2022-12-18T08:03:17.816Z,5.20
2022-12-18T08:08:26.690Z,4.70
2022-12-18T08:13:32.504Z,5.63
2022-12-18T08:18:38.497Z,5.95
2022-12-18T08:23:47.749Z,4.87
2022-12-18T08:28:55.066Z,5.13
2022-12-18T08:34:00.968Z,5.38
2022-12-18T08:39:09.649Z,5.20
2022-12-18T08:44:27.783Z,6.25
2022-12-18T08:49:33.904Z,6.03
2022-12-18T08:54:41.849Z,6.00
2022-12-18T08:59:47.096Z,5.57
2022-12-18T09:04:57.102Z,5.60
2022-12-18T09:10:05.683Z,5.43
2022-12-18T09:15:11.661Z,5.90
2022-12-18T09:20:16.937Z,5.55
2022-12-18T09:25:25.979Z,5.80
2022-12-18T09:30:34.294Z,6.73
2022-12-18T09:35:40.940Z,6.95
2022-12-18T09:40:52.066Z,6.13
2022-12-18T09:46:02.996Z,5.80
2022-12-18T09:51:16.437Z,5.50
2022-12-18T09:56:26.818Z,5.97
2022-12-18T10:01:41.453Z,5.93
2022-12-18T10:06:56.289Z,6.43
2022-12-18T10:12:13.038Z,6.53
2022-12-18T10:17:27.405Z,5.93
2022-12-18T10:22:46.955Z,6.03
2022-12-18T10:27:59.109Z,7.25
2022-12-18T10:33:05.628Z,6.10
2022-12-18T10:38:26.116Z,6.28
2022-12-18T10:43:36.000Z,5.93
2022-12-18T10:48:51.112Z,6.03
2022-12-18T10:54:00.370Z,6.38
2022-12-18T10:59:10.960Z,5.60
2022-12-18T11:04:21.849Z,6.10
2022-12-18T11:09:28.716Z,6.20
2022-12-18T11:14:47.367Z,5.23
2022-12-18T11:19:56.912Z,6.13
2022-12-18T11:25:33.467Z,5.57
2022-12-18T11:30:36.940Z,5.95
2022-12-18T11:35:51.634Z,5.93
2022-12-18T11:41:04.748Z,5.47
2022-12-18T11:46:19.810Z,5.95
2022-12-18T11:51:32.030Z,5.97
2022-12-18T11:56:41.648Z,6.32
2022-12-18T12:01:56.397Z,6.22
2022-12-18T12:07:11.550Z,5.77
2022-12-18T12:12:48.669Z,6.40
2022-12-18T12:18:00.976Z,6.50
2022-12-18T12:23:22.485Z,6.45
2022-12-18T12:28:48.458Z,5.85
2022-12-18T12:34:07.535Z,6.13
2022-12-18T12:39:17.498Z,6.38
2022-12-18T12:44:27.199Z,7.13
2022-12-18T12:49:40.597Z,7.05
2022-12-18T12:54:47.372Z,7.38
2022-12-18T13:00:02.773Z,7.63
2022-12-18T13:05:19.026Z,9.00
2022-12-18T13:10:34.658Z,8.00
2022-12-18T13:15:46.273Z,8.10
2022-12-18T13:21:07.641Z,7.35
2022-12-18T13:26:37.084Z,8.47
2022-12-18T13:32:25.405Z,8.70
2022-12-18T13:37:56.182Z,8.23
2022-12-18T13:43:14.369Z,9.02
2022-12-18T13:48:27.988Z,9.52
2022-12-18T13:53:40.689Z,9.03
2022-12-18T13:58:47.125Z,7.95
2022-12-18T14:03:52.422Z,9.00
2022-12-18T14:09:00.968Z,9.10
2022-12-18T14:14:08.479Z,8.43
2022-12-18T14:19:18.367Z,9.30
2022-12-18T14:24:26.237Z,10.23
2022-12-18T14:29:33.182Z,8.43
2022-12-18T14:34:38.433Z,8.27
2022-12-18T14:39:56.196Z,9.90
2022-12-18T14:45:41.746Z,9.83
2022-12-18T14:50:48.356Z,10.07
2022-12-18T14:55:59.536Z,10.57
2022-12-18T15:01:05.077Z,10.98
2022-12-18T15:06:21.221Z,10.23
2022-12-18T15:11:49.683Z,9.83
2022-12-18T15:16:57.179Z,10.50
2022-12-18T15:22:06.346Z,10.57
2022-12-18T15:27:28.649Z,11.13
2022-12-18T15:32:33.948Z,9.82
2022-12-18T15:37:40.454Z,10.03
2022-12-18T15:43:03.760Z,10.85
2022-12-18T15:48:21.709Z,7.53
2022-12-18T15:53:33.983Z,9.70
2022-12-18T15:58:46.039Z,10.23
2022-12-18T16:03:51.587Z,10.23
2022-12-18T16:08:57.184Z,10.70
2022-12-18T16:14:05.141Z,10.90
2022-12-18T16:19:10.507Z,10.93
2022-12-18T16:24:19.810Z,11.30
2022-12-18T16:29:35.308Z,10.90
2022-12-18T16:34:41.199Z,10.70
2022-12-18T16:39:47.048Z,11.60
2022-12-18T16:44:55.065Z,11.85
2022-12-18T16:50:00.316Z,12.68
2022-12-18T16:55:06.777Z,13.13
2022-12-18T17:00:16.581Z,11.82
2022-12-18T17:05:22.075Z,12.33
2022-12-18T17:10:27.643Z,13.13
2022-12-18T17:15:38.192Z,13.45
2022-12-18T17:20:43.512Z,11.37
2022-12-18T17:25:48.773Z,11.52
2022-12-18T17:30:56.990Z,13.23
2022-12-18T17:36:02.647Z,14.90
2022-12-18T17:41:10.454Z,12.85
2022-12-18T17:46:18.347Z,12.40
2022-12-18T17:51:24.826Z,14.75
2022-12-18T17:56:30.176Z,13.67
2022-12-18T18:01:44.402Z,14.15
2022-12-18T18:06:50.707Z,14.18
2022-12-18T18:12:08.461Z,14.23
2022-12-18T18:17:16.344Z,12.25
2022-12-18T18:22:21.844Z,12.27
2022-12-18T18:27:28.388Z,14.98
2022-12-18T18:32:39.703Z,12.88
2022-12-18T18:37:45.036Z,15.27
2022-12-18T18:42:50.366Z,15.15
2022-12-18T18:47:58.982Z,14.23
2022-12-18T18:53:06.460Z,15.70
2022-12-18T18:58:11.703Z,14.20
2022-12-18T19:03:21.065Z,15.53
2022-12-18T19:08:28.876Z,14.00
2022-12-18T19:13:36.463Z,14.17
2022-12-18T19:18:46.472Z,15.43
2022-12-18T19:23:52.419Z,14.38
2022-12-18T19:29:03.658Z,13.97
2022-12-18T19:34:12.723Z,15.43
2022-12-18T19:39:20.105Z,14.53
2022-12-18T19:44:25.701Z,14.35
2022-12-18T19:49:34.241Z,14.73
2022-12-18T19:54:40.088Z,15.53
2022-12-18T19:59:46.068Z,15.60
2022-12-18T20:04:56.615Z,14.60
2022-12-18T20:10:08.646Z,14.90
2022-12-18T20:15:15.057Z,12.77
2022-12-18T20:20:23.310Z,12.50
2022-12-18T20:25:29.216Z,14.75
2022-12-18T20:30:36.909Z,14.60
2022-12-18T20:35:45.340Z,15.02
2022-12-18T20:40:52.022Z,13.60
2022-12-18T20:46:03.814Z,13.00
2022-12-18T20:51:14.616Z,14.05
2022-12-18T20:56:22.141Z,16.17
2022-12-18T21:01:28.209Z,13.43
2022-12-18T21:06:36.939Z,14.02
2022-12-18T21:11:54.970Z,14.37
2022-12-18T21:17:02.063Z,13.52
2022-12-18T21:22:10.080Z,13.53
2022-12-18T21:27:17.834Z,12.50
2022-12-18T21:32:23.664Z,14.82
2022-12-18T21:37:33.078Z,13.90
2022-12-18T21:42:50.777Z,14.68
2022-12-18T21:47:56.019Z,14.63
2022-12-18T21:53:04.109Z,13.82
2022-12-18T21:58:09.406Z,14.45
2022-12-18T22:03:18.521Z,14.70
2022-12-18T22:08:27.383Z,13.43
2022-12-18T22:13:32.656Z,14.70
2022-12-18T22:18:37.872Z,14.77
2022-12-18T22:23:45.691Z,14.27
2022-12-18T22:29:15.470Z,15.50
2022-12-18T22:34:23.230Z,14.52
2022-12-18T22:39:32.840Z,14.50
2022-12-18T22:44:38.163Z,16.52
2022-12-18T22:49:43.480Z,15.73
2022-12-18T22:54:51.295Z,14.57
2022-12-18T22:59:58.836Z,15.45
2022-12-18T23:05:04.382Z,15.67
2022-12-18T23:10:13.180Z,16.42
2022-12-18T23:15:18.914Z,15.73
2022-12-18T23:20:28.490Z,16.47
2022-12-18T23:25:36.340Z,14.80
2022-12-18T23:30:41.639Z,15.47
2022-12-18T23:35:46.918Z,15.15
2022-12-18T23:40:56.322Z,13.07
2022-12-18T23:46:02.187Z,15.50
2022-12-18T23:51:09.582Z,15.63
2022-12-18T23:56:17.448Z,15.57
